NCAR-RAP Real-Time Weather Data

Output produced by METARs form (24 April 2018  16:21 UTC)
found at http://weather.rap.ucar.edu/surface/
 
RJFS 241600Z 36005KT 9999 FEW015 BKN020 14/13 Q1006
RJFS 241500Z 04007KT 9999 FEW015 SCT020 BKN025 15/13 Q1006
RJFS 241400Z 35012KT 9999 FEW010 SCT015 BKN020 15/12 Q1006
RJFS 241200Z 01008KT 9999 -SHRA FEW005 SCT010 BKN020 15/14 Q1006
RJFS 241100Z 35015KT 6000 -SHRA FEW005 BKN015 BKN030 15/13 Q1005
RJFS 241000Z 36009KT 7000 -SHRA FEW005 SCT008 BKN015 15/14 Q1004
RJFS 240950Z 36010KT 6000 -SHRA FEW005 SCT008 BKN015 15/14 Q1004 RMK 1ST005 3ST008 6CU015 A2965
RJFS 240920Z 35013KT 4000 -SHRA BR FEW005 SCT008 BKN015 15/14 Q1004 RMK 1ST005 4ST008 6CU015 A2965
RJFS 240900Z 36009KT 3000 SHRA BR FEW002 SCT005 BKN008 15/15 Q1004
RJFS 240800Z 35011KT 3000 SHRA BR FEW005 SCT010 BKN015 16/16 Q1003
RJFS 240711Z 32011KT 3000 SHRA BR FEW003 SCT010 BKN015 17/17 Q1003 RMK 1ST003 4CU010 6CU015 A2963
RJFS 240700Z 30009KT 3500 -SHRA BR FEW003 SCT010 BKN015 18/17 Q1003
RJFS 240643Z 30008KT 4000 SHRA BR FEW003 SCT010 BKN015 18/17 Q1003 RMK 1ST003 4CU010 6CU015 A2964
RJFS 240600Z 32009KT 9999 -SHRA FEW003 SCT010 BKN025 19/18 Q1003
RJFS 240550Z 29010KT 8000 -SHRA FEW003 SCT010 BKN030 19/18 Q1003 RMK 1ST003 3CU010 6CU030 A2964
RJFS 240540Z 22007KT 180V270 8000 -SHRA FEW003 SCT010 BKN030 20/19 Q1003 RMK 1ST003 3CU010 6CU030 A2964
RJFS 240500Z 16012KT 9999 -SHRA FEW005 SCT020 BKN040 20/19 Q1004
RJFS 240400Z 17014KT 9999 VCSH FEW005 SCT025 BKN035 20/19 Q1004
RJFS 240300Z 19013KT 8000 -SHRA FEW005 SCT015 BKN030 19/19 Q1005
RJFS 240217Z 17011KT 6000 -SHRA FEW005 SCT010 BKN020 19/19 Q1006 RMK 2ST005 4CU010 6CU020 A2971
RJFS 240200Z 19013KT 4000 SHRA BR FEW005 SCT010 BKN015 20/19 Q1006
RJFS 240137Z 16011KT 4000 -SHRA BR FEW003 SCT020 BKN030 20/19 Q1006 RMK 2ST003 4CU020 6CU030 A2972
RJFS 240118Z 16012KT 2500 R29/0800VP2000U SHRA BR FEW003 SCT010 BKN020 19/19 Q1006 RMK 2ST003 4CU010 6CU020 A2973
RJFS 240113Z 17012KT 1500 R29/0700V2000U +SHRA BR FEW005 SCT010 BKN020 19/19 Q1006 RMK 2ST005 4CU010 6CU020 A2973
RJFS 240108Z 17013KT 1200 R29/0700V1400N +SHRA BR FEW005 SCT010 BKN020 19/19 Q1007 RMK 2ST005 4CU010 6CU020 A2974 RI++
RJFS 240102Z 21011KT 1500 R29/0750VP2000D +SHRA BR FEW005 SCT010 BKN020 19/19 Q1007 RMK 2ST005 4CU010 6CU020 A2974
RJFS 240100Z 22012KT 2000 R29/0900VP2000D +SHRA BR FEW005 SCT010 BKN020 20/19 Q1007
RJFS 240026Z 16015G25KT 2500 SHRA BR FEW010 SCT015 BKN020 19/19 Q1006 RMK 1ST010 4CU015 6CU020 A2972
RJFS 240012Z 15015KT 3000 SHRA BR FEW010 SCT020 BKN030 19/18 Q1006 RMK 1ST010 4CU020 6CU030 A2972
RJFS 240000Z 14016KT 3500 -SHRA BR FEW010 SCT020 BKN030 19/18 Q1006
RJFS 232336Z 13011KT 2000 R29/1600VP2000N SHRA BR FEW010 SCT025 BKN030 19/18 Q1006 RMK 1ST010 4CU025 7CU030 A2973
RJFS 232300Z 14016KT 4000 -SHRA BR FEW010 SCT030 BKN040 19/18 Q1006
RJFS 232200Z 15016KT 4000 -SHRA BR FEW010 SCT020 BKN035 19/18 Q1007
RJFS 232143Z 15011KT 6000 SHRA FEW020 SCT030 BKN040 19/17 Q1007 RMK 1CU020 4CU030 7CU040 A2975
RJFS 232100Z 15014KT 9999 -SHRA FEW025 SCT035 BKN045 19/17 Q1007
RJFS 231900Z 15011KT 9999 FEW035 SCT040 BKN080 21/16 Q1008
RJFS 231800Z 14005KT 9999 FEW035 BKN040 21/16 Q1009
RJFS 231700Z 17015KT 9999 FEW035 BKN045 21/17 Q1009
RJFS 231600Z 17009KT 9999 FEW035 BKN050 21/17 Q1010
RJFS 231500Z 22007KT 9999 FEW035 BKN050 21/18 Q1011
RJFS 231400Z 20005KT 9999 -RA FEW035 SCT045 BKN050 21/18 Q1012
RJFS 231200Z 17005KT 9999 -RA FEW035 BKN070 21/18 Q1012
RJFS 231100Z 18005KT 9999 -RA FEW035 SCT070 BKN100 21/18 Q1012
RJFS 231000Z 17005KT 9999 FEW040 SCT090 BKN130 21/18 Q1012
RJFS 230900Z 16007KT 9999 FEW035 SCT045 BKN070 21/18 Q1012
RJFS 230800Z 17008KT 9999 FEW040 SCT050 BKN070 22/17 Q1012
RJFS 230700Z 15009KT 9999 FEW040 SCT045 BKN070 22/17 Q1012
RJFS 230600Z 18006KT 160V220 9999 FEW035 SCT045 BKN070 22/17 Q1013
RJFS 230500Z 20006KT 9999 FEW040 SCT045 BKN100 22/17 Q1014
RJFS 230400Z 17007KT 9999 FEW040 SCT100 BKN150 22/17 Q1014
RJFS 230300Z 16004KT 120V210 9999 FEW040 SCT070 BKN150 21/16 Q1015
RJFS 230200Z VRB02KT 9000 FEW040 BKN070 BKN120 21/17 Q1016
RJFS 230100Z 10003KT 050V150 8000 FEW050 SCT070 BKN120 20/16 Q1016
RJFS 230000Z 08003KT 010V140 8000 FEW050 BKN070 20/16 Q1017
RJFS 222300Z 02004KT 6000 FEW040 SCT070 BKN090 18/16 Q1017
RJFS 222200Z 02003KT 350V060 5000 BR FEW040 BKN070 17/16 Q1017
RJFS 222100Z 02003KT 5000 BR NSC 17/15 Q1016
RJFS 221900Z 33003KT 8000 NSC 16/15 Q1016
RJFS 221800Z 33003KT 8000 NSC 17/15 Q1017
RJFS 221700Z 32004KT 8000 NSC 17/16 Q1017
RJFS 221600Z 27004KT 8000 NSC 17/15 Q1017
RJFS 221200Z 25006KT CAVOK 20/16 Q1017
RJFS 221100Z 31004KT CAVOK 20/16 Q1016
RJFS 221000Z 34004KT CAVOK 21/17 Q1016
RJFS 220900Z 20005KT 9999 FEW040 SCT/// 22/18 Q1016
RJFS 220800Z 19008KT 9999 FEW035 SCT/// 23/17 Q1016
RJFS 220700Z 21006KT 9999 FEW035 24/16 Q1016
RJFS 220600Z 19005KT 160V230 9999 FEW035 23/17 Q1016
RJFS 220500Z 20005KT 9999 FEW035 SCT/// 23/15 Q1017